Time;durP1;ratioP1;P1;durP2;ratioP2;P2;SDS_P1;SDS_P2;PMS_P1;PMS_P2;Temp;Humidity;BMP_temperature;BMP_pressure;BME280_temperature;BME280_humidity;BME280_pressure;Samples;Min_cycle;Max_cycle;Signal;HPM_P1;HPM_P2
2022/11/23 00:01:56;;;;;;;9.57;7.37;;;;;;;12.39;72.49;93396.00;5032858;28;20192;-81
2022/11/23 00:04:24;;;;;;;9.63;8.30;;;;;;;12.39;72.40;93409.66;5025738;28;20243;-80
2022/11/23 00:06:51;;;;;;;9.37;7.27;;;;;;;12.41;72.16;93409.47;5014299;28;20698;-80
2022/11/23 00:09:18;;;;;;;9.90;7.60;;;;;;;12.39;72.28;93407.09;5020763;28;20203;-80
2022/11/23 00:11:45;;;;;;;9.20;7.70;;;;;;;12.42;72.28;93403.34;5022845;28;20656;-80
2022/11/23 00:14:13;;;;;;;8.83;7.13;;;;;;;12.39;72.41;93404.53;5023332;28;20195;-81
2022/11/23 00:16:40;;;;;;;8.80;6.90;;;;;;;12.34;72.45;93386.28;5017180;28;20188;-80
2022/11/23 00:19:07;;;;;;;10.30;7.47;;;;;;;12.42;72.52;93396.44;5031607;28;20340;-80
2022/11/23 00:21:34;;;;;;;7.90;7.10;;;;;;;12.30;72.56;93367.13;5014228;28;20671;-81
2022/11/23 00:24:01;;;;;;;7.57;6.57;;;;;;;12.41;72.49;93382.03;5013342;28;20231;-82
2022/11/23 00:26:27;;;;;;;9.50;7.07;;;;;;;12.42;72.70;93377.72;5014192;28;20206;-81
2022/11/23 00:28:54;;;;;;;7.67;6.30;;;;;;;12.44;72.73;93383.47;5014020;28;20200;-81
2022/11/23 00:31:24;;;;;;;11.30;6.60;;;;;;;12.42;72.80;93375.94;5014515;28;20203;-80
2022/11/23 00:33:52;;;;;;;8.50;6.63;;;;;;;12.44;72.93;93389.38;5031198;28;20195;-82
2022/11/23 00:36:20;;;;;;;8.10;6.60;;;;;;;12.45;73.06;93400.44;5032284;28;20246;-80
2022/11/23 00:38:48;;;;;;;7.53;5.77;;;;;;;12.41;72.94;93394.88;5033119;28;20282;-81
2022/11/23 00:41:17;;;;;;;8.03;6.30;;;;;;;12.45;73.26;93393.53;5032735;28;20202;-81
2022/11/23 00:43:44;;;;;;;10.13;5.90;;;;;;;12.46;73.27;93389.19;5033573;28;20220;-81
2022/11/23 00:46:14;;;;;;;7.23;5.47;;;;;;;12.46;73.33;93391.75;5032837;28;20198;-79
2022/11/23 00:48:42;;;;;;;8.50;6.03;;;;;;;12.43;73.33;93390.34;5032769;28;20206;-81
2022/11/23 00:51:11;;;;;;;8.87;5.73;;;;;;;12.47;73.34;93391.56;5032911;28;20662;-82
2022/11/23 00:53:38;;;;;;;7.17;5.63;;;;;;;12.37;73.52;93367.22;5032374;28;20677;-79
2022/11/23 00:56:06;;;;;;;8.40;6.17;;;;;;;12.34;73.40;93368.34;5032229;28;20192;-82
2022/11/23 00:58:33;;;;;;;8.30;5.77;;;;;;;12.45;73.59;93385.84;5032231;28;20215;-80
2022/11/23 01:01:02;;;;;;;6.90;6.20;;;;;;;12.44;73.58;93379.13;5031778;28;20582;-78
2022/11/23 01:03:30;;;;;;;7.57;5.13;;;;;;;12.48;73.63;93382.91;5014920;28;20219;-82
2022/11/23 01:06:04;;;;;;;6.83;5.37;;;;;;;12.48;73.85;93380.34;5012432;28;20196;-81
2022/11/23 01:08:32;;;;;;;6.47;5.13;;;;;;;12.48;73.54;93372.66;5012699;28;20196;-79
2022/11/23 01:11:00;;;;;;;6.97;5.53;;;;;;;12.48;73.84;93375.22;5012491;28;20196;-79
2022/11/23 01:13:27;;;;;;;6.03;5.20;;;;;;;12.48;74.05;93387.25;5033096;28;20191;-80
2022/11/23 01:15:55;;;;;;;8.87;5.33;;;;;;;12.38;74.07;93371.34;5039135;28;20200;-79
2022/11/23 01:18:22;;;;;;;9.23;6.23;;;;;;;12.46;74.08;93377.16;5033111;28;20199;-81
2022/11/23 01:20:51;;;;;;;7.73;5.33;;;;;;;12.50;74.07;93372.47;5032927;28;20195;-79
2022/11/23 01:23:19;;;;;;;7.33;5.13;;;;;;;12.49;74.12;93365.75;5034331;28;20219;-80
2022/11/23 01:25:47;;;;;;;5.77;4.77;;;;;;;12.49;74.23;93374.25;5032158;28;21025;-80
2022/11/23 01:28:14;;;;;;;7.80;5.43;;;;;;;12.48;74.23;93380.34;5028527;28;20659;-81
2022/11/23 01:30:40;;;;;;;6.73;5.83;;;;;;;12.49;74.26;93383.72;5015180;28;20702;-80
2022/11/23 01:33:07;;;;;;;6.77;5.00;;;;;;;12.50;74.46;93383.53;5023736;28;20199;-79
2022/11/23 01:35:34;;;;;;;7.37;5.20;;;;;;;12.37;74.41;93360.31;5031765;28;20200;-80
2022/11/23 01:38:01;;;;;;;8.87;5.50;;;;;;;12.49;74.49;93373.44;5031432;28;20195;-79
2022/11/23 01:40:29;;;;;;;6.70;5.30;;;;;;;12.45;74.55;93360.19;5021354;28;20223;-79
2022/11/23 01:42:58;;;;;;;7.40;5.33;;;;;;;12.49;74.65;93368.31;5019345;28;20203;-80
2022/11/23 01:45:38;;;;;;;6.00;5.17;;;;;;;12.48;74.82;93379.56;5034115;28;20215;-79
2022/11/23 01:48:11;;;;;;;5.13;4.63;;;;;;;12.47;74.76;93383.09;5041562;28;20200;-81
2022/11/23 01:50:38;;;;;;;5.30;4.60;;;;;;;12.48;74.81;93371.88;5037207;28;20181;-80
2022/11/23 01:53:06;;;;;;;6.33;5.30;;;;;;;12.47;75.01;93368.50;5026307;28;20188;-80
2022/11/23 01:55:35;;;;;;;6.70;5.07;;;;;;;12.45;75.01;93375.59;5017593;28;20200;-82
2022/11/23 01:58:04;;;;;;;7.90;4.67;;;;;;;12.45;74.93;93388.41;5021243;28;20188;-80
2022/11/23 02:00:30;;;;;;;5.17;4.67;;;;;;;12.35;75.01;93364.00;5030210;28;20187;-81
2022/11/23 02:03:00;;;;;;;5.67;4.87;;;;;;;12.39;75.25;93363.50;5013156;28;20188;-81
2022/11/23 02:05:32;;;;;;;6.73;5.00;;;;;;;12.46;75.04;93361.00;5011217;28;20614;-81
2022/11/23 02:08:01;;;;;;;6.33;4.80;;;;;;;12.45;75.04;93351.72;5020081;28;20198;-80
2022/11/23 02:10:30;;;;;;;7.00;5.53;;;;;;;12.44;75.26;93361.19;5030193;28;20724;-82
2022/11/23 02:13:02;;;;;;;5.73;4.63;;;;;;;12.43;75.26;93356.22;5011798;28;20184;-82
2022/11/23 02:15:29;;;;;;;5.60;4.90;;;;;;;12.43;75.41;93345.97;5013942;28;20195;-80
2022/11/23 02:17:56;;;;;;;6.03;4.50;;;;;;;12.38;75.38;93338.81;5011388;28;20199;-81
2022/11/23 02:20:23;;;;;;;6.43;5.30;;;;;;;12.42;75.71;93349.50;5011581;28;20204;-82
2022/11/23 02:23:01;;;;;;;5.33;4.60;;;;;;;12.41;75.59;93343.59;5017464;28;20196;-82
2022/11/23 02:25:37;;;;;;;4.53;4.07;;;;;;;12.43;75.47;93351.09;5014486;28;20222;-83
2022/11/23 02:28:07;;;;;;;9.03;5.40;;;;;;;12.42;75.50;93352.88;5030258;28;20202;-80
2022/11/23 02:30:36;;;;;;;6.73;3.70;;;;;;;12.40;75.69;93339.44;5030788;28;20191;-80
2022/11/23 02:33:04;;;;;;;5.13;4.57;;;;;;;12.30;75.59;93326.94;5020245;28;20215;-80
2022/11/23 02:35:31;;;;;;;5.23;4.43;;;;;;;12.37;75.77;93332.09;5030734;28;20188;-81
2022/11/23 02:37:59;;;;;;;6.40;4.33;;;;;;;12.41;75.69;93332.53;5031331;28;20188;-80
2022/11/23 02:40:30;;;;;;;6.20;4.90;;;;;;;12.38;75.59;93314.97;5030345;28;20184;-81
2022/11/23 02:42:58;;;;;;;6.30;5.27;;;;;;;12.42;75.79;93314.41;5030323;28;20176;-80
2022/11/23 02:45:36;;;;;;;6.17;5.03;;;;;;;12.41;75.99;93310.25;5018881;28;20231;-80
2022/11/23 02:48:03;;;;;;;7.67;4.97;;;;;;;12.41;75.84;93309.47;5010598;28;20630;-80
2022/11/23 02:50:30;;;;;;;7.80;4.60;;;;;;;12.40;75.82;93307.91;5011047;28;20196;-81
2022/11/23 02:52:57;;;;;;;4.60;4.10;;;;;;;12.41;75.82;93306.91;5016958;28;20706;-81
2022/11/23 02:55:24;;;;;;;5.30;4.53;;;;;;;12.41;75.66;93301.78;5020775;28;20199;-80
2022/11/23 02:57:51;;;;;;;7.93;4.90;;;;;;;12.41;75.79;93304.34;5015727;28;20200;-81
2022/11/23 03:00:18;;;;;;;5.43;4.93;;;;;;;12.40;75.71;93297.63;5012806;28;20266;-80
2022/11/23 03:02:46;;;;;;;7.20;4.40;;;;;;;12.40;75.72;93295.06;5012065;28;20200;-80
2022/11/23 03:05:13;;;;;;;6.10;4.90;;;;;;;12.39;75.80;93294.28;5011165;28;20315;-81
2022/11/23 03:07:40;;;;;;;8.47;4.67;;;;;;;12.39;75.84;93304.53;5020669;28;20184;-79
2022/11/23 03:10:08;;;;;;;5.50;5.00;;;;;;;12.38;75.92;93294.44;5018905;28;20207;-79
2022/11/23 03:12:35;;;;;;;6.67;5.20;;;;;;;12.35;75.93;93275.13;5011057;28;20199;-80
2022/11/23 03:15:01;;;;;;;6.50;5.13;;;;;;;12.36;75.94;93281.81;5012675;28;20291;-80
2022/11/23 03:17:35;;;;;;;6.80;5.33;;;;;;;12.35;75.99;93280.25;5012461;28;20189;-81
2022/11/23 03:20:03;;;;;;;6.47;5.00;;;;;;;12.35;75.86;93289.69;5012616;28;20630;-80
2022/11/23 03:22:30;;;;;;;5.60;5.10;;;;;;;12.31;75.87;93273.91;5011652;28;20192;-80
2022/11/23 03:24:57;;;;;;;5.80;5.17;;;;;;;12.34;75.78;93281.19;5010695;28;20232;-79
2022/11/23 03:27:24;;;;;;;7.27;5.20;;;;;;;12.24;75.51;93280.72;5010847;28;20260;-78
2022/11/23 03:29:51;;;;;;;6.10;5.50;;;;;;;12.33;75.74;93279.63;5010523;28;20200;-78
2022/11/23 03:32:18;;;;;;;7.27;6.03;;;;;;;12.26;75.86;93253.13;5010221;28;20185;-79
2022/11/23 03:34:44;;;;;;;7.30;5.77;;;;;;;12.29;75.69;93276.63;5010538;28;20184;-80
2022/11/23 03:37:12;;;;;;;5.90;5.03;;;;;;;12.27;75.91;93270.91;5010184;28;20584;-80
2022/11/23 03:39:39;;;;;;;9.93;6.20;;;;;;;12.25;75.82;93272.03;5010564;28;20196;-80
2022/11/23 03:42:06;;;;;;;8.10;5.90;;;;;;;12.19;75.81;93242.03;5010396;28;20656;-80
2022/11/23 03:44:33;;;;;;;6.33;5.70;;;;;;;12.25;75.72;93256.66;5010112;28;20220;-78
2022/11/23 03:47:00;;;;;;;7.17;5.10;;;;;;;12.26;75.89;93253.94;5025370;28;20187;-80
2022/11/23 03:49:27;;;;;;;6.33;5.37;;;;;;;12.25;75.72;93256.66;5029681;28;20192;-80
2022/11/23 03:51:54;;;;;;;8.43;5.53;;;;;;;12.24;75.79;93234.59;5029518;28;20188;-80
2022/11/23 03:54:22;;;;;;;6.87;5.53;;;;;;;12.16;76.14;93222.69;5030076;28;20203;-80
2022/11/23 03:56:49;;;;;;;7.40;5.97;;;;;;;12.11;76.13;93221.66;5029857;28;20216;-79
2022/11/23 03:59:16;;;;;;;6.63;5.60;;;;;;;12.21;76.13;93245.97;5030017;28;20196;-79
2022/11/23 04:01:43;;;;;;;6.17;5.50;;;;;;;12.20;76.10;93234.16;5029606;28;20199;-79
2022/11/23 04:04:10;;;;;;;6.60;5.83;;;;;;;12.17;76.01;93247.31;5029808;28;20230;-78
2022/11/23 04:06:37;;;;;;;6.33;5.63;;;;;;;12.13;76.06;93248.66;5029745;28;20245;-79
2022/11/23 04:09:04;;;;;;;6.17;5.57;;;;;;;12.18;76.14;93273.78;5031386;28;20534;-80
2022/11/23 04:11:32;;;;;;;6.17;5.57;;;;;;;12.17;76.29;93262.69;5033900;28;20184;-80
2022/11/23 04:13:59;;;;;;;8.13;5.47;;;;;;;12.13;76.20;93243.53;5042224;28;20199;-80
2022/11/23 04:16:26;;;;;;;5.93;5.33;;;;;;;12.18;76.25;93258.41;5042559;28;20200;-79
2022/11/23 04:18:52;;;;;;;7.13;5.53;;;;;;;12.05;76.29;93241.91;5040170;28;20291;-80
2022/11/23 04:21:19;;;;;;;6.37;5.03;;;;;;;12.17;76.07;93264.47;5034725;28;20239;-80
2022/11/23 04:23:46;;;;;;;5.63;5.10;;;;;;;12.18;76.27;93271.22;5034326;28;20203;-81
2022/11/23 04:26:13;;;;;;;6.27;5.67;;;;;;;12.18;76.29;93276.34;5034478;28;20246;-80
2022/11/23 04:28:41;;;;;;;6.67;5.97;;;;;;;12.16;76.34;93263.69;5033595;28;20579;-81
2022/11/23 04:31:08;;;;;;;6.27;5.17;;;;;;;12.18;76.38;93251.50;5020837;28;20184;-80
2022/11/23 04:33:35;;;;;;;7.97;5.47;;;;;;;12.12;76.35;93252.22;5014572;28;20193;-82
2022/11/23 04:36:02;;;;;;;6.50;5.57;;;;;;;12.14;76.34;93264.84;5013705;28;20193;-80
2022/11/23 04:38:28;;;;;;;6.03;5.37;;;;;;;12.11;76.21;93255.75;5013278;28;20284;-80
2022/11/23 04:40:56;;;;;;;6.53;5.90;;;;;;;12.08;76.59;93256.13;5017823;28;20215;-81
2022/11/23 04:43:23;;;;;;;6.37;5.67;;;;;;;12.13;76.59;93271.72;5033926;28;20282;-79
2022/11/23 04:45:51;;;;;;;6.60;5.83;;;;;;;12.13;76.51;93294.78;5033811;28;20683;-81
2022/11/23 04:48:21;;;;;;;7.73;5.83;;;;;;;12.12;76.53;93287.28;5033495;28;20279;-80
2022/11/23 04:50:47;;;;;;;7.80;6.20;;;;;;;12.10;76.63;93302.06;5034250;28;20195;-81
2022/11/23 04:56:00;;;;;;;6.20;5.60;;;;;;;12.06;76.56;93258.06;4939410;29;20206;-81
2022/11/23 04:58:27;;;;;;;7.47;5.77;;;;;;;12.08;76.68;93278.38;4934549;29;20191;-81
2022/11/23 05:00:59;;;;;;;6.00;5.47;;;;;;;12.08;76.64;93279.16;4933861;29;20199;-81
2022/11/23 05:03:26;;;;;;;6.73;5.63;;;;;;;12.07;76.68;93312.66;4947616;29;20242;-80
2022/11/23 05:05:59;;;;;;;7.70;5.97;;;;;;;11.93;76.74;93294.59;4941566;29;20229;-84
2022/11/23 05:08:26;;;;;;;6.70;6.00;;;;;;;12.05;76.70;93297.50;4934833;29;20289;-82
2022/11/23 05:10:54;;;;;;;7.90;6.30;;;;;;;12.04;76.68;93309.47;4953049;29;20646;-82
2022/11/23 05:13:20;;;;;;;8.67;6.90;;;;;;;12.04;76.86;93299.22;4952384;29;20194;-80
2022/11/23 05:15:50;;;;;;;7.27;6.50;;;;;;;11.58;76.54;93229.56;4951986;29;20191;-82
2022/11/23 05:18:20;;;;;;;8.10;5.83;;;;;;;12.03;76.74;93297.66;4951796;29;20182;-83
2022/11/23 05:20:47;;;;;;;8.17;7.00;;;;;;;12.03;76.88;93319.91;4991515;28;20196;-83
2022/11/23 05:23:14;;;;;;;7.53;6.63;;;;;;;12.03;76.94;93294.31;5021335;28;20185;-82
2022/11/23 05:25:41;;;;;;;9.13;7.07;;;;;;;11.98;76.77;93289.72;5014528;28;20235;-81
2022/11/23 05:28:14;;;;;;;8.97;7.63;;;;;;;12.03;76.87;93277.16;5020183;28;20188;-81
2022/11/23 05:30:41;;;;;;;8.20;7.23;;;;;;;12.02;77.03;93278.13;5031157;28;20191;-82
2022/11/23 05:33:08;;;;;;;9.30;7.50;;;;;;;12.02;76.81;93295.28;5031979;28;20196;-82
2022/11/23 05:35:36;;;;;;;7.83;7.00;;;;;;;11.81;76.70;93249.91;5030859;28;20202;-82
2022/11/23 05:38:03;;;;;;;8.43;7.40;;;;;;;11.93;77.08;93263.06;5032259;28;20671;-79
2022/11/23 05:40:30;;;;;;;4.37;3.50;;;;;;;12.11;92.14;93272.91;5031935;28;20647;-80
2022/11/23 05:42:57;;;;;;;8.10;4.43;;;;;;;12.73;100.00;93280.75;5032301;28;20188;-79
2022/11/23 05:45:25;;;;;;;10.43;8.40;;;;;;;13.12;100.00;93283.78;5031726;28;20852;-83
2022/11/23 05:47:53;;;;;;;8.30;7.27;;;;;;;13.28;100.00;93284.31;5013773;28;20656;-82
2022/11/23 05:50:22;;;;;;;9.03;7.73;;;;;;;13.33;98.16;93283.75;5015053;28;20192;-80
2022/11/23 05:52:50;;;;;;;12.90;6.77;;;;;;;13.35;94.34;93293.84;5012119;28;20180;-80
2022/11/23 05:55:17;;;;;;;11.07;8.37;;;;;;;13.27;92.13;93282.75;5012328;28;20215;-82
2022/11/23 05:57:44;;;;;;;8.30;7.07;;;;;;;13.31;90.21;93288.28;5012338;28;20188;-81
2022/11/23 06:00:11;;;;;;;8.37;7.47;;;;;;;13.17;88.88;93261.72;5011883;28;20667;-82
2022/11/23 06:02:39;;;;;;;9.37;8.27;;;;;;;13.25;88.04;93276.19;5011898;28;20614;-82
2022/11/23 06:05:07;;;;;;;11.83;8.13;;;;;;;13.23;87.35;93275.59;5018834;28;20242;-84
2022/11/23 06:07:34;;;;;;;8.63;7.50;;;;;;;13.17;86.66;93278.88;5013100;28;20223;-83
2022/11/23 06:10:03;;;;;;;10.37;8.43;;;;;;;13.15;86.10;93291.91;5012388;28;20196;-80
2022/11/23 06:12:30;;;;;;;10.73;8.57;;;;;;;13.16;85.67;93296.06;5012041;28;20188;-81
2022/11/23 06:14:57;;;;;;;12.07;8.03;;;;;;;13.14;85.25;93303.16;5012659;28;20197;-80
2022/11/23 06:17:24;;;;;;;9.67;8.50;;;;;;;13.03;84.80;93288.28;5010482;28;20189;-80
2022/11/23 06:19:51;;;;;;;9.07;8.17;;;;;;;13.09;84.55;93284.97;5012634;28;20203;-82
2022/11/23 06:22:18;;;;;;;10.07;8.60;;;;;;;13.12;84.15;93312.81;5012348;28;20188;-85
2022/11/23 06:24:44;;;;;;;10.87;8.80;;;;;;;13.14;83.95;93318.56;5013720;28;20254;-82
2022/11/23 06:27:16;;;;;;;11.27;8.30;;;;;;;13.09;83.77;93302.94;5029954;28;20195;-82
2022/11/23 06:29:42;;;;;;;10.33;8.60;;;;;;;13.15;83.53;93319.34;5036420;28;20188;-87
2022/11/23 06:32:09;;;;;;;11.17;9.17;;;;;;;13.11;83.28;93315.56;5034637;28;20196;-79
2022/11/23 06:34:36;;;;;;;9.67;8.23;;;;;;;13.13;83.08;93321.31;5025241;28;20195;-82
2022/11/23 06:37:03;;;;;;;13.67;10.33;;;;;;;13.07;82.54;93307.44;5013219;28;20275;-78
2022/11/23 06:39:30;;;;;;;11.83;9.50;;;;;;;13.21;82.30;93313.47;5011264;28;20181;-79
2022/11/23 06:41:57;;;;;;;11.17;9.73;;;;;;;13.17;81.83;93313.06;5016987;28;20192;-84
2022/11/23 06:44:25;;;;;;;11.30;9.67;;;;;;;13.25;81.86;93300.09;5021221;28;20208;-85
2022/11/23 06:46:52;;;;;;;13.17;10.03;;;;;;;13.28;81.16;93322.03;5018914;28;21228;-82
2022/11/23 06:49:20;;;;;;;11.67;10.00;;;;;;;13.09;81.12;93292.66;5032833;28;20192;-82
2022/11/23 06:51:47;;;;;;;12.87;10.13;;;;;;;13.33;80.66;93306.84;5049253;28;20214;-83
2022/11/23 06:54:15;;;;;;;12.50;9.53;;;;;;;13.36;80.43;93287.72;5050899;28;20175;-83
2022/11/23 06:56:42;;;;;;;11.23;10.03;;;;;;;13.17;80.16;93278.88;5040048;28;20223;-83
2022/11/23 06:59:09;;;;;;;11.47;10.10;;;;;;;13.47;79.86;93312.84;5031551;28;20211;-81
2022/11/23 07:01:37;;;;;;;12.50;10.40;;;;;;;13.41;79.46;93286.16;5030726;28;20184;-81
2022/11/23 07:04:05;;;;;;;11.50;9.50;;;;;;;13.62;79.21;93315.31;5030847;28;20191;-81
2022/11/23 07:06:32;;;;;;;12.70;9.80;;;;;;;13.72;79.09;93308.06;5028918;28;20234;-80
2022/11/23 07:08:59;;;;;;;11.60;9.73;;;;;;;13.80;78.70;93316.38;5033381;28;20188;-78
2022/11/23 07:11:26;;;;;;;13.23;10.33;;;;;;;13.88;78.76;93309.50;5031951;28;20202;-77
2022/11/23 07:13:53;;;;;;;12.70;10.10;;;;;;;13.95;78.26;93295.72;5029319;28;20544;-79
2022/11/23 07:16:20;;;;;;;12.17;9.43;;;;;;;14.06;78.00;93310.56;5026592;28;20562;-82
2022/11/23 07:18:48;;;;;;;12.23;9.77;;;;;;;14.15;77.78;93318.88;5033168;28;20491;-79
2022/11/23 07:21:14;;;;;;;11.60;8.73;;;;;;;14.21;77.68;93325.06;5029152;28;20594;-79
2022/11/23 07:23:41;;;;;;;10.00;8.90;;;;;;;14.28;77.51;93343.84;5029383;28;20199;-78
2022/11/23 07:26:09;;;;;;;11.03;9.17;;;;;;;14.30;77.40;93329.03;5028146;28;20239;-81
2022/11/23 07:28:36;;;;;;;10.03;8.93;;;;;;;14.32;77.22;93340.69;5027416;28;20238;-80
2022/11/23 07:31:03;;;;;;;14.07;9.60;;;;;;;14.30;77.35;93313.63;5027093;28;20202;-79
2022/11/23 07:33:30;;;;;;;11.07;9.33;;;;;;;14.19;76.97;93299.53;5027637;28;20242;-82
2022/11/23 07:36:01;;;;;;;9.43;8.50;;;;;;;14.40;77.07;93338.94;5027980;28;20217;-82
2022/11/23 07:38:28;;;;;;;9.33;8.23;;;;;;;14.09;76.76;93286.25;5027960;28;20195;-82
2022/11/23 07:40:57;;;;;;;10.40;8.13;;;;;;;14.43;76.72;93330.84;5027649;28;20567;-84
2022/11/23 07:43:28;;;;;;;9.80;8.43;;;;;;;14.49;76.51;93325.72;5027743;28;20621;-78
2022/11/23 07:46:00;;;;;;;10.43;9.10;;;;;;;14.58;76.06;93336.63;5032270;28;20709;-81
2022/11/23 07:48:27;;;;;;;8.97;7.73;;;;;;;14.46;75.82;93297.78;5033657;28;20199;-84
2022/11/23 07:50:55;;;;;;;7.70;5.30;;;;;;;15.02;94.61;93288.94;5033079;28;20207;-83
2022/11/23 07:53:24;;;;;;;7.57;5.03;;;;;;;15.87;98.17;93333.59;5033018;28;20278;-79
2022/11/23 07:55:56;;;;;;;12.37;6.17;;;;;;;16.39;94.70;93326.63;5033118;28;20654;-81
2022/11/23 07:58:24;;;;;;;11.87;7.20;;;;;;;16.79;90.78;93322.06;5034148;28;20192;-81
2022/11/23 08:00:52;;;;;;;10.83;6.53;;;;;;;17.03;87.22;93310.16;5034348;28;20184;-81
2022/11/23 08:03:19;;;;;;;7.13;5.90;;;;;;;16.93;85.05;93296.94;5033476;28;20226;-82
2022/11/23 08:05:46;;;;;;;7.03;6.33;;;;;;;16.97;84.18;93323.94;5033521;28;20223;-82
2022/11/23 08:08:13;;;;;;;7.53;6.60;;;;;;;16.85;82.90;93315.28;5032942;28;20191;-81
2022/11/23 08:10:42;;;;;;;7.73;6.53;;;;;;;16.74;81.97;93310.78;5033059;28;20282;-82
2022/11/23 08:13:09;;;;;;;11.30;7.30;;;;;;;16.67;81.12;93304.88;5033143;28;20195;-79
2022/11/23 08:15:36;;;;;;;10.87;7.30;;;;;;;16.59;80.39;93305.09;5032905;28;20203;-80
2022/11/23 08:18:04;;;;;;;9.33;6.63;;;;;;;16.33;79.92;93280.25;5033506;28;20584;-85
2022/11/23 08:20:32;;;;;;;10.23;7.30;;;;;;;16.46;79.28;93311.13;5032843;28;20199;-82
2022/11/23 08:22:59;;;;;;;8.80;7.33;;;;;;;16.47;78.57;93307.56;5032442;28;20693;-80
2022/11/23 08:25:27;;;;;;;14.50;7.73;;;;;;;16.51;77.95;93308.72;5032955;28;20228;-79
2022/11/23 08:28:00;;;;;;;12.33;7.10;;;;;;;16.56;77.47;93308.88;5031895;28;20188;-83
2022/11/23 08:30:28;;;;;;;8.43;7.13;;;;;;;16.44;77.09;93282.16;5032992;28;20188;-80
2022/11/23 08:32:55;;;;;;;8.73;6.80;;;;;;;16.53;76.72;93294.59;5032370;28;20191;-81
2022/11/23 08:35:22;;;;;;;10.53;7.73;;;;;;;16.53;76.51;93297.19;5032225;28;20206;-81
2022/11/23 08:37:49;;;;;;;11.10;7.77;;;;;;;16.38;76.63;93291.53;5033415;28;20202;-82
2022/11/23 08:40:17;;;;;;;10.37;7.83;;;;;;;16.20;76.26;93274.16;5033984;28;20198;-81
2022/11/23 08:42:44;;;;;;;10.37;8.10;;;;;;;16.24;76.20;93277.91;5032765;28;20593;-82
2022/11/23 08:45:12;;;;;;;9.30;8.17;;;;;;;16.27;76.07;93287.00;5035097;28;20188;-82
2022/11/23 08:47:39;;;;;;;10.30;8.27;;;;;;;16.29;75.82;93316.00;5045383;28;20192;-81
2022/11/23 08:50:07;;;;;;;9.17;8.27;;;;;;;16.22;75.75;93310.84;5034698;28;20192;-83
2022/11/23 08:52:34;;;;;;;10.80;8.87;;;;;;;16.16;75.70;93293.63;5032706;28;20199;-83
2022/11/23 08:55:01;;;;;;;10.60;8.50;;;;;;;16.08;75.56;93298.22;5031628;28;20195;-81
2022/11/23 08:57:28;;;;;;;9.97;8.60;;;;;;;16.13;75.41;93308.72;5033025;28;20191;-80
2022/11/23 08:59:55;;;;;;;10.63;9.50;;;;;;;16.12;75.11;93302.00;5032086;28;20206;-81
2022/11/23 09:02:23;;;;;;;12.77;9.30;;;;;;;16.13;74.88;93311.31;5032290;28;20196;-82
2022/11/23 09:04:50;;;;;;;11.00;9.70;;;;;;;16.17;74.75;93315.84;5031907;28;20196;-81
2022/11/23 09:07:17;;;;;;;11.13;9.33;;;;;;;16.22;74.44;93310.84;5032830;28;20223;-83
2022/11/23 09:09:44;;;;;;;10.83;9.60;;;;;;;16.28;74.16;93315.19;5034241;28;20230;-81
2022/11/23 09:12:11;;;;;;;10.60;9.50;;;;;;;16.34;73.96;93300.69;5033894;28;20654;-80
2022/11/23 09:14:38;;;;;;;12.83;10.67;;;;;;;16.02;73.62;93241.34;5033350;28;20188;-78
2022/11/23 09:17:05;;;;;;;12.20;10.60;;;;;;;16.42;73.54;93291.91;5034984;28;20538;-81
2022/11/23 09:19:33;;;;;;;11.93;10.07;;;;;;;16.45;73.20;93286.31;5034889;28;20200;-79
2022/11/23 09:22:00;;;;;;;11.77;10.47;;;;;;;16.30;72.83;93260.81;5032807;28;20634;-82
2022/11/23 09:24:27;;;;;;;11.83;10.10;;;;;;;16.50;72.73;93286.50;5032748;28;20224;-80
2022/11/23 09:26:54;;;;;;;12.57;10.17;;;;;;;16.52;72.47;93295.59;5034448;28;20255;-80
2022/11/23 09:29:21;;;;;;;13.43;9.87;;;;;;;16.56;72.30;93293.41;5034814;28;20227;-78
2022/11/23 09:31:48;;;;;;;10.97;9.53;;;;;;;16.55;72.11;93284.88;5036541;28;20208;-80
2022/11/23 09:34:15;;;;;;;11.53;9.53;;;;;;;16.61;71.89;93290.97;5039513;28;20199;-80
2022/11/23 09:36:43;;;;;;;10.27;9.23;;;;;;;16.38;71.65;93239.94;5036482;28;20203;-78
2022/11/23 09:39:11;;;;;;;11.70;10.00;;;;;;;16.67;71.59;93273.88;5034490;28;20650;-84
2022/11/23 09:41:57;;;;;;;15.60;10.10;;;;;;;16.69;71.46;93280.41;5031516;28;20278;-80
2022/11/23 09:44:35;;;;;;;12.80;9.47;;;;;;;16.30;71.17;93212.59;5031455;28;20195;-80
2022/11/23 09:47:21;;;;;;;10.67;9.53;;;;;;;16.74;71.18;93280.59;5031076;28;20785;-80
2022/11/23 09:49:58;;;;;;;12.73;10.47;;;;;;;16.71;71.07;93275.03;5031504;28;20699;-80
2022/11/23 09:52:26;;;;;;;10.97;9.83;;;;;;;16.79;70.87;93280.75;5031409;28;20283;-79
2022/11/23 09:55:01;;;;;;;10.50;8.87;;;;;;;16.83;70.84;93278.53;5032207;28;20191;-85
2022/11/23 09:57:31;;;;;;;9.97;8.83;;;;;;;16.87;70.64;93282.28;5032604;28;20230;-84
2022/11/23 10:00:02;;;;;;;13.33;9.03;;;;;;;16.70;70.46;93247.63;5029133;28;20223;-85
2022/11/23 10:02:29;;;;;;;10.93;8.20;;;;;;;16.95;70.13;93279.44;5031056;28;20199;-84
2022/11/23 10:04:59;;;;;;;9.67;8.67;;;;;;;16.89;70.15;93259.63;5031377;28;20206;-85
2022/11/23 10:07:44;;;;;;;11.93;9.33;;;;;;;17.03;69.96;93280.97;5030572;28;20227;-81
2022/11/23 10:10:27;;;;;;;9.50;8.50;;;;;;;17.09;69.82;93271.56;5028664;28;20199;-85
2022/11/23 10:13:06;;;;;;;9.70;8.00;;;;;;;17.15;69.67;93273.34;5029376;28;20199;-82
2022/11/23 10:15:40;;;;;;;9.33;7.80;;;;;;;17.20;69.64;93270.88;5030977;28;20641;-81
2022/11/23 10:18:22;;;;;;;10.87;7.13;;;;;;;17.25;69.36;93271.81;5028975;28;20196;-79
2022/11/23 10:20:56;;;;;;;9.43;7.53;;;;;;;17.30;69.17;93261.63;5030356;28;20196;-80
2022/11/23 10:23:48;;;;;;;10.93;8.13;;;;;;;17.36;68.87;93265.19;5029560;28;20654;-83
2022/11/23 10:26:17;;;;;;;8.57;6.87;;;;;;;17.43;68.50;93265.09;5007283;28;20224;-80
2022/11/23 10:28:46;;;;;;;7.97;7.17;;;;;;;17.39;68.51;93256.97;5009397;28;20193;-82
2022/11/23 10:31:16;;;;;;;7.80;6.23;;;;;;;17.45;68.48;93263.88;5010543;28;20199;-84
2022/11/23 10:33:53;;;;;;;9.27;6.83;;;;;;;17.47;68.35;93264.44;5007708;28;20217;-84
2022/11/23 10:36:21;;;;;;;7.07;6.30;;;;;;;17.49;68.25;93256.50;5012050;28;20271;-85
2022/11/23 10:38:54;;;;;;;10.20;6.87;;;;;;;17.60;68.05;93258.34;5012011;28;20196;-84
2022/11/23 10:41:21;;;;;;;8.33;6.57;;;;;;;17.41;67.80;93200.72;5025477;28;20192;-84
2022/11/23 10:43:55;;;;;;;7.10;6.13;;;;;;;17.75;67.38;93239.94;5016463;28;20204;-79
2022/11/23 10:46:29;;;;;;;6.87;6.07;;;;;;;17.77;67.28;93240.50;5009934;28;20224;-83
2022/11/23 10:49:09;;;;;;;8.07;5.23;;;;;;;18.00;67.14;93244.97;5010375;28;20192;-80
2022/11/23 10:51:38;;;;;;;5.90;5.30;;;;;;;17.97;66.68;93225.53;5008676;28;20181;-83
2022/11/23 10:54:19;;;;;;;6.40;4.83;;;;;;;18.11;66.29;93233.91;5006967;28;20195;-80
2022/11/23 10:56:48;;;;;;;6.57;4.53;;;;;;;18.26;65.99;93233.47;5006678;28;20276;-81
2022/11/23 10:59:27;;;;;;;8.13;4.40;;;;;;;18.28;65.31;93223.72;5010141;28;20199;-80
2022/11/23 11:02:01;;;;;;;4.97;4.33;;;;;;;18.49;65.00;93240.53;5009898;28;20232;-80
2022/11/23 11:04:28;;;;;;;4.87;4.07;;;;;;;18.54;64.71;93238.84;5005347;28;20192;-81
2022/11/23 11:07:10;;;;;;;5.77;4.03;;;;;;;18.62;64.12;93242.94;5007196;28;20227;-81
2022/11/23 11:09:39;;;;;;;4.00;3.60;;;;;;;18.70;63.86;93240.06;5008761;28;20195;-79
2022/11/23 11:12:15;;;;;;;5.33;3.30;;;;;;;18.78;63.65;93244.09;5009248;28;20200;-80
2022/11/23 11:14:56;;;;;;;4.20;2.73;;;;;;;18.86;62.99;93242.97;5009600;28;20212;-81
2022/11/23 11:17:28;;;;;;;3.40;3.10;;;;;;;18.73;62.58;93207.72;5005861;28;20199;-81
2022/11/23 11:19:55;;;;;;;3.40;3.13;;;;;;;18.93;62.58;93223.75;5009056;28;20884;-80
2022/11/23 11:22:34;;;;;;;5.63;3.30;;;;;;;19.07;61.97;93245.03;5010079;28;20220;-82
2022/11/23 11:25:04;;;;;;;3.90;3.10;;;;;;;18.90;62.16;93206.03;5010806;28;20232;-80
2022/11/23 11:27:32;;;;;;;4.80;3.17;;;;;;;19.05;61.81;93219.34;5009128;28;20651;-82
2022/11/23 11:30:20;;;;;;;5.00;3.83;;;;;;;19.20;61.71;93225.88;5010984;28;20234;-80
2022/11/23 11:32:56;;;;;;;3.53;3.23;;;;;;;19.24;61.51;93216.63;5010234;28;20667;-84
2022/11/23 11:35:27;;;;;;;5.33;3.67;;;;;;;19.27;61.35;93192.84;5009253;28;20254;-82
2022/11/23 11:38:00;;;;;;;5.87;3.30;;;;;;;19.42;61.17;93207.94;5008926;28;20203;-81
2022/11/23 11:40:34;;;;;;;4.97;3.53;;;;;;;19.48;61.16;93218.19;5009903;28;20198;-81